createdAt,value
2018-05-21T00:01:55.799Z,68.90
2018-05-21T00:04:24.130Z,69.50
2018-05-21T00:06:52.463Z,69.80
2018-05-21T00:09:20.774Z,69.80
2018-05-21T00:11:49.095Z,70.30
2018-05-21T00:14:18.178Z,70.70
2018-05-21T00:16:46.590Z,70.70
2018-05-21T00:19:14.852Z,71.10
2018-05-21T00:21:43.202Z,71.80
2018-05-21T00:24:12.742Z,72.60
2018-05-21T00:26:41.065Z,72.50
2018-05-21T00:29:09.395Z,72.70
2018-05-21T00:31:37.710Z,72.90
2018-05-21T00:34:06.034Z,73.40
2018-05-21T00:36:34.381Z,73.50
2018-05-21T00:39:02.705Z,74.00
2018-05-21T00:41:31.002Z,74.60
2018-05-21T00:44:00.098Z,75.00
2018-05-21T00:46:28.411Z,75.10
2018-05-21T00:48:56.739Z,75.30
2018-05-21T00:51:25.036Z,75.60
2018-05-21T00:53:53.378Z,76.50
2018-05-21T00:56:21.681Z,76.70
2018-05-21T00:58:50.010Z,77.20
2018-05-21T01:01:19.078Z,77.80
2018-05-21T01:03:47.412Z,77.80
2018-05-21T01:06:15.815Z,77.90
2018-05-21T01:08:44.844Z,78.40
2018-05-21T01:11:13.159Z,78.10
2018-05-21T01:13:42.252Z,79.80
2018-05-21T01:16:11.345Z,80.30
2018-05-21T01:18:40.409Z,80.30
2018-05-21T01:21:08.720Z,80.20
2018-05-21T01:23:37.811Z,81.50
2018-05-21T01:26:06.146Z,81.60
2018-05-21T01:28:34.465Z,81.40
2018-05-21T01:31:02.763Z,81.80
2018-05-21T01:33:31.844Z,82.30
2018-05-21T01:36:00.150Z,82.30
2018-05-21T01:38:29.238Z,82.80
2018-05-21T01:40:57.564Z,82.80
2018-05-21T01:43:25.882Z,82.60
2018-05-21T01:45:55.702Z,83.20
2018-05-21T01:48:24.046Z,83.10
2018-05-21T01:50:52.338Z,83.60
2018-05-21T01:53:20.624Z,84.30
2018-05-21T01:55:48.951Z,84.30
2018-05-21T01:58:18.030Z,85.00
2018-05-21T02:00:48.080Z,85.40
2018-05-21T02:03:16.390Z,85.40
2018-05-21T02:05:44.719Z,85.60
2018-05-21T02:08:14.973Z,85.40
2018-05-21T02:10:43.373Z,85.50
2018-05-21T02:13:13.518Z,85.60
2018-05-21T02:15:41.903Z,85.60
2018-05-21T02:18:10.218Z,85.50
2018-05-21T02:20:39.269Z,86.20
2018-05-21T02:23:09.410Z,86.10
2018-05-21T02:25:37.698Z,86.30
2018-05-21T02:28:06.019Z,86.40
2018-05-21T02:30:34.524Z,86.90
2018-05-21T02:33:02.851Z,87.00
2018-05-21T02:35:31.153Z,87.00
2018-05-21T02:38:00.225Z,87.60
2018-05-21T02:40:28.563Z,87.60
2018-05-21T02:42:56.878Z,87.80
2018-05-21T02:45:25.167Z,88.10
2018-05-21T02:47:53.497Z,88.50
2018-05-21T02:50:21.803Z,88.70
2018-05-21T02:52:50.112Z,88.90
2018-05-21T02:55:18.514Z,88.90
2018-05-21T02:57:47.609Z,90.00
2018-05-21T03:00:15.942Z,89.20
2018-05-21T03:02:44.260Z,89.20
2018-05-21T03:05:13.574Z,89.60
2018-05-21T03:07:42.654Z,89.80
2018-05-21T03:10:10.993Z,89.70
2018-05-21T03:12:39.300Z,89.20
2018-05-21T03:15:07.613Z,89.60
2018-05-21T03:17:35.921Z,89.50
2018-05-21T03:20:05.023Z,90.40
2018-05-21T03:22:33.333Z,90.40
2018-05-21T03:25:01.624Z,90.40
2018-05-21T03:27:29.940Z,90.60
2018-05-21T03:29:58.226Z,90.30
2018-05-21T03:32:27.308Z,90.90
2018-05-21T03:34:55.598Z,90.50
2018-05-21T03:37:23.931Z,90.70
2018-05-21T03:39:52.233Z,90.40
2018-05-21T03:42:20.550Z,90.70
2018-05-21T03:44:49.638Z,90.60
2018-05-21T03:47:18.718Z,90.60
2018-05-21T03:49:47.014Z,90.60
2018-05-21T03:52:15.354Z,90.70
2018-05-21T03:54:43.651Z,90.70
2018-05-21T03:57:12.757Z,90.60
2018-05-21T03:59:53.035Z,90.60
2018-05-21T04:05:22.536Z,90.50
2018-05-21T04:07:50.849Z,90.50
2018-05-21T04:10:19.464Z,90.50
2018-05-21T04:12:47.764Z,90.50
2018-05-21T04:15:16.076Z,90.40
2018-05-21T04:17:44.375Z,90.40
2018-05-21T04:20:13.469Z,90.30
2018-05-21T04:22:42.542Z,90.10
2018-05-21T04:25:10.872Z,90.10
2018-05-21T04:27:39.169Z,90.10
2018-05-21T04:30:07.541Z,89.90
2018-05-21T04:32:36.839Z,89.60
2018-05-21T04:35:05.125Z,89.50
2018-05-21T04:37:33.468Z,89.30
2018-05-21T04:40:01.745Z,88.90
2018-05-21T04:42:30.077Z,88.60
2018-05-21T04:44:58.414Z,88.20
2018-05-21T04:47:27.521Z,88.70
2018-05-21T04:49:56.597Z,87.70
2018-05-21T04:52:24.935Z,87.70
2018-05-21T04:54:53.243Z,87.30
2018-05-21T04:57:21.606Z,87.30
2018-05-21T04:59:49.928Z,87.30
2018-05-21T05:02:18.233Z,86.80
2018-05-21T05:04:46.560Z,85.90
2018-05-21T05:07:14.866Z,85.20
2018-05-21T05:09:43.207Z,84.60
2018-05-21T05:12:11.509Z,82.90
2018-05-21T05:14:39.840Z,81.00
2018-05-21T05:17:08.145Z,79.20
2018-05-21T05:19:36.488Z,77.70
2018-05-21T05:22:05.571Z,76.20
2018-05-21T05:24:34.712Z,75.60
2018-05-21T05:27:03.034Z,75.70
2018-05-21T05:29:31.361Z,75.40
2018-05-21T05:32:00.462Z,72.10
2018-05-21T05:34:29.548Z,70.30
2018-05-21T05:36:58.648Z,69.80
2018-05-21T05:39:27.737Z,68.50
2018-05-21T05:41:56.067Z,68.40
2018-05-21T05:44:26.373Z,68.00
2018-05-21T05:46:54.871Z,67.40
2018-05-21T05:49:24.091Z,66.80
2018-05-21T05:51:52.486Z,65.00
2018-05-21T05:54:20.827Z,63.90
2018-05-21T05:56:50.079Z,61.40
2018-05-21T05:59:18.457Z,61.30
2018-05-21T06:01:46.752Z,59.60
2018-05-21T06:04:15.086Z,58.30
2018-05-21T06:06:43.911Z,57.20
2018-05-21T06:09:12.257Z,56.60
2018-05-21T06:11:40.552Z,55.40
2018-05-21T06:14:09.647Z,53.70
2018-05-21T06:16:37.971Z,53.70
2018-05-21T06:19:06.302Z,52.50
2018-05-21T06:21:34.605Z,50.90
2018-05-21T06:24:02.911Z,49.40
2018-05-21T06:26:31.269Z,48.60
2018-05-21T06:28:59.571Z,48.00
2018-05-21T06:31:27.890Z,48.20
2018-05-21T06:33:56.282Z,46.60
2018-05-21T06:36:24.553Z,46.40
2018-05-21T06:38:52.885Z,46.30
2018-05-21T06:41:21.216Z,46.30
2018-05-21T06:43:49.526Z,46.10
2018-05-21T06:46:17.874Z,45.90
2018-05-21T06:48:46.948Z,43.10
2018-05-21T06:51:16.060Z,43.80
2018-05-21T06:53:45.307Z,42.70
2018-05-21T06:56:14.333Z,41.20
2018-05-21T06:58:42.655Z,41.10
2018-05-21T07:01:11.736Z,41.50
2018-05-21T07:03:40.843Z,42.40
2018-05-21T07:06:09.916Z,40.30
2018-05-21T07:08:38.237Z,40.20
2018-05-21T07:11:06.558Z,38.00
2018-05-21T07:13:34.944Z,37.80
2018-05-21T07:16:03.213Z,38.30
2018-05-21T07:18:31.537Z,37.50
2018-05-21T07:20:59.862Z,38.20
2018-05-21T07:23:28.173Z,38.80
2018-05-21T07:25:56.490Z,37.20
2018-05-21T07:28:25.607Z,35.90
2018-05-21T07:30:53.955Z,35.80
2018-05-21T07:33:22.419Z,33.70
2018-05-21T07:35:50.745Z,35.40
2018-05-21T07:38:19.820Z,33.30
2018-05-21T07:40:48.139Z,33.30
2018-05-21T07:43:16.457Z,34.30
2018-05-21T07:45:44.795Z,33.20
2018-05-21T07:48:13.116Z,33.70
2018-05-21T07:50:41.424Z,33.80
2018-05-21T07:53:11.254Z,34.40
2018-05-21T07:55:39.584Z,34.40
2018-05-21T07:58:07.928Z,34.50
2018-05-21T08:00:37.112Z,34.40
2018-05-21T08:03:06.234Z,32.80
2018-05-21T08:05:35.326Z,33.30
2018-05-21T08:08:04.414Z,34.90
2018-05-21T08:10:33.505Z,35.70
2018-05-21T08:13:02.631Z,35.60
2018-05-21T08:15:31.345Z,35.60
2018-05-21T08:17:59.666Z,35.40
2018-05-21T08:20:28.799Z,34.70
2018-05-21T08:22:57.125Z,34.50
2018-05-21T08:25:25.438Z,34.50
2018-05-21T08:27:53.749Z,33.60
2018-05-21T08:30:22.094Z,32.90
2018-05-21T08:32:50.446Z,32.60
2018-05-21T08:35:19.584Z,32.00
2018-05-21T08:37:48.075Z,33.30
2018-05-21T08:40:18.014Z,33.50
2018-05-21T08:42:46.604Z,33.40
2018-05-21T08:45:15.266Z,32.10
2018-05-21T08:47:44.153Z,30.70
2018-05-21T08:50:12.887Z,29.30
2018-05-21T08:52:41.299Z,29.20
2018-05-21T08:55:09.657Z,28.40
2018-05-21T08:57:38.269Z,28.70
2018-05-21T09:00:06.578Z,28.10
2018-05-21T09:02:35.661Z,27.00
2018-05-21T09:05:03.995Z,27.00
2018-05-21T09:07:32.328Z,30.00
2018-05-21T09:10:00.699Z,29.90
2018-05-21T09:12:29.072Z,28.90
2018-05-21T09:14:58.103Z,28.70
2018-05-21T09:17:26.455Z,28.60
2018-05-21T09:19:54.768Z,27.40
2018-05-21T09:22:23.120Z,27.90
2018-05-21T09:24:51.475Z,27.40
2018-05-21T09:27:19.807Z,28.10
2018-05-21T09:29:48.132Z,27.60
2018-05-21T09:32:16.525Z,27.90
2018-05-21T09:34:44.852Z,27.90
2018-05-21T09:37:13.169Z,27.40
2018-05-21T09:39:41.504Z,27.50
2018-05-21T09:42:09.831Z,27.50
2018-05-21T09:44:38.261Z,28.40
2018-05-21T09:47:06.574Z,28.00
2018-05-21T09:49:35.690Z,28.70
2018-05-21T09:52:04.501Z,28.10
2018-05-21T09:54:32.867Z,28.30
2018-05-21T09:57:01.209Z,27.70
2018-05-21T09:59:29.684Z,27.30
2018-05-21T10:01:58.069Z,27.60
2018-05-21T10:04:26.376Z,27.70
2018-05-21T10:06:54.745Z,28.50
2018-05-21T10:09:23.100Z,28.00
2018-05-21T10:11:51.459Z,28.50
2018-05-21T10:14:20.041Z,29.20
2018-05-21T10:16:48.409Z,29.20
2018-05-21T10:19:17.560Z,27.90
2018-05-21T10:21:45.910Z,28.40
2018-05-21T10:24:14.244Z,27.70
2018-05-21T10:26:42.628Z,28.00
2018-05-21T10:29:11.763Z,26.90
2018-05-21T10:31:40.089Z,26.80
2018-05-21T10:34:08.468Z,27.30
2018-05-21T10:36:36.778Z,26.40
2018-05-21T10:39:06.026Z,26.60
2018-05-21T10:41:34.335Z,27.10
2018-05-21T10:44:02.664Z,27.20
2018-05-21T10:46:31.792Z,26.30
2018-05-21T10:49:00.128Z,26.30
2018-05-21T10:51:29.325Z,27.90
2018-05-21T10:53:57.591Z,27.50
2018-05-21T10:56:26.893Z,26.90
2018-05-21T10:58:55.211Z,26.50
2018-05-21T11:01:23.566Z,25.50
2018-05-21T11:03:52.673Z,25.80
2018-05-21T11:06:21.020Z,25.80
2018-05-21T11:08:49.327Z,24.60
2018-05-21T11:11:17.671Z,24.40
2018-05-21T11:13:45.991Z,26.00
2018-05-21T11:16:14.343Z,25.80
2018-05-21T11:18:42.654Z,25.50
2018-05-21T11:21:11.922Z,26.00
2018-05-21T11:23:40.280Z,25.50
2018-05-21T11:26:09.957Z,24.70
2018-05-21T11:28:38.438Z,25.10
2018-05-21T11:31:06.778Z,25.60
2018-05-21T11:33:35.232Z,25.30
2018-05-21T11:36:04.404Z,24.50
2018-05-21T11:38:32.863Z,24.50
2018-05-21T11:41:01.453Z,23.80
2018-05-21T11:43:29.999Z,24.20
2018-05-21T11:45:58.312Z,23.90
2018-05-21T11:48:26.657Z,25.50
2018-05-21T11:50:55.741Z,26.10
2018-05-21T11:53:24.820Z,25.70
2018-05-21T11:55:53.834Z,25.70
2018-05-21T11:58:22.915Z,26.60
2018-05-21T12:00:51.512Z,26.60
2018-05-21T12:03:19.827Z,26.60
2018-05-21T12:05:48.151Z,26.50
2018-05-21T12:08:16.503Z,27.00
2018-05-21T12:10:44.826Z,27.50
2018-05-21T12:13:13.135Z,28.10
2018-05-21T12:15:42.250Z,28.00
2018-05-21T12:18:10.556Z,28.00
2018-05-21T12:20:38.907Z,26.90
2018-05-21T12:23:07.240Z,27.10
2018-05-21T12:25:35.576Z,26.80
2018-05-21T12:28:03.971Z,26.70
2018-05-21T12:30:32.341Z,26.90
2018-05-21T12:33:00.658Z,26.70
2018-05-21T12:35:29.043Z,26.60
2018-05-21T12:37:57.383Z,27.10
2018-05-21T12:40:25.719Z,26.80
2018-05-21T12:42:54.094Z,26.80
2018-05-21T12:45:22.441Z,26.60
2018-05-21T12:47:50.779Z,27.00
2018-05-21T12:50:19.157Z,27.60
2018-05-21T12:52:47.479Z,27.00
2018-05-21T12:55:15.813Z,26.50
2018-05-21T12:57:44.120Z,26.60
2018-05-21T13:00:13.439Z,26.50
2018-05-21T13:02:41.789Z,26.50
2018-05-21T13:05:11.597Z,27.80
2018-05-21T13:07:39.955Z,27.70
2018-05-21T13:10:08.295Z,28.20
2018-05-21T13:12:36.677Z,26.80
2018-05-21T13:15:04.985Z,28.00
2018-05-21T13:17:33.300Z,27.80
2018-05-21T13:20:01.639Z,28.30
2018-05-21T13:22:29.934Z,28.20
2018-05-21T13:24:58.274Z,27.60
2018-05-21T13:27:27.355Z,27.10
2018-05-21T13:29:55.658Z,27.10
2018-05-21T13:32:24.755Z,27.20
2018-05-21T13:34:53.877Z,27.70
2018-05-21T13:37:22.214Z,27.60
2018-05-21T13:39:51.322Z,27.20
2018-05-21T13:42:19.623Z,27.10
2018-05-21T13:44:48.717Z,27.00
2018-05-21T13:47:17.794Z,27.00
2018-05-21T13:49:46.126Z,26.90
2018-05-21T13:52:14.462Z,26.80
2018-05-21T13:54:43.641Z,26.40
2018-05-21T13:57:13.625Z,26.30
2018-05-21T13:59:42.215Z,26.20
2018-05-21T14:02:10.529Z,26.80
2018-05-21T14:04:38.845Z,26.60
2018-05-21T14:07:08.436Z,27.10
2018-05-21T14:09:36.784Z,27.10
2018-05-21T14:12:06.161Z,28.00
2018-05-21T14:14:34.696Z,29.00
2018-05-21T14:17:04.484Z,28.80
2018-05-21T14:19:33.018Z,28.10
2018-05-21T14:22:01.549Z,28.20
2018-05-21T14:24:29.882Z,28.10
2018-05-21T14:26:59.010Z,28.20
2018-05-21T14:29:27.377Z,27.80
2018-05-21T14:31:55.683Z,28.30
2018-05-21T14:34:23.994Z,28.30
2018-05-21T14:36:52.310Z,27.70
2018-05-21T14:39:20.647Z,27.70
2018-05-21T14:41:48.972Z,28.10
2018-05-21T14:44:17.315Z,29.20
2018-05-21T14:46:45.651Z,29.60
2018-05-21T14:49:14.761Z,29.50
2018-05-21T14:51:43.135Z,29.50
2018-05-21T14:54:13.125Z,28.10
2018-05-21T14:56:42.994Z,27.90
2018-05-21T14:59:11.333Z,27.90
2018-05-21T15:01:39.665Z,28.30
2018-05-21T15:04:08.107Z,28.10
2018-05-21T15:06:36.358Z,28.30
2018-05-21T15:09:04.705Z,28.30
2018-05-21T15:11:33.015Z,29.10
2018-05-21T15:14:01.372Z,28.00
2018-05-21T15:16:31.299Z,29.10
2018-05-21T15:18:59.617Z,29.00
2018-05-21T15:21:28.737Z,30.30
2018-05-21T15:23:57.819Z,31.00
2018-05-21T15:26:27.296Z,31.00
2018-05-21T15:28:56.346Z,31.90
2018-05-21T15:31:25.420Z,31.80
2018-05-21T15:33:54.567Z,32.30
2018-05-21T15:36:22.898Z,32.10
2018-05-21T15:38:52.116Z,33.10
2018-05-21T15:41:20.661Z,33.00
2018-05-21T15:43:48.981Z,33.20
2018-05-21T15:46:18.085Z,32.60
2018-05-21T15:48:47.182Z,33.00
2018-05-21T15:51:16.268Z,33.20
2018-05-21T15:53:45.389Z,33.80
2018-05-21T15:56:14.564Z,34.30
2018-05-21T15:58:44.481Z,34.70
2018-05-21T16:01:12.993Z,34.70
2018-05-21T16:03:41.351Z,34.70
2018-05-21T16:06:09.689Z,33.70
2018-05-21T16:08:38.115Z,34.30
2018-05-21T16:11:06.676Z,33.30
2018-05-21T16:13:35.013Z,33.80
2018-05-21T16:16:03.408Z,33.70
2018-05-21T16:18:31.746Z,33.90
2018-05-21T16:21:00.968Z,34.10
2018-05-21T16:23:29.321Z,33.60
2018-05-21T16:25:58.100Z,33.50
2018-05-21T16:28:26.622Z,33.60
2018-05-21T16:30:55.963Z,35.10
2018-05-21T16:33:25.191Z,35.00
2018-05-21T16:35:53.760Z,35.20
2018-05-21T16:38:22.135Z,34.90
2018-05-21T16:40:50.483Z,35.30
2018-05-21T16:43:19.778Z,35.40
2018-05-21T16:45:48.869Z,35.80
2018-05-21T16:48:17.198Z,35.70
2018-05-21T16:50:46.115Z,34.90
2018-05-21T16:53:14.471Z,35.00
2018-05-21T16:55:42.800Z,35.40
2018-05-21T16:58:12.002Z,35.90
2018-05-21T17:00:41.122Z,35.70
2018-05-21T17:03:10.596Z,35.70
2018-05-21T17:05:39.281Z,35.50
2018-05-21T17:08:07.789Z,35.60
2018-05-21T17:10:36.869Z,35.70
2018-05-21T17:13:06.219Z,36.40
2018-05-21T17:15:35.636Z,36.10
2018-05-21T17:18:05.391Z,36.10
2018-05-21T17:20:33.814Z,35.90
2018-05-21T17:23:03.866Z,36.40
2018-05-21T17:25:32.230Z,36.40
2018-05-21T17:28:02.937Z,36.50
2018-05-21T17:30:31.712Z,36.50
2018-05-21T17:33:01.012Z,36.60
2018-05-21T17:35:29.616Z,36.50
2018-05-21T17:37:58.795Z,36.50
2018-05-21T17:40:27.221Z,36.50
2018-05-21T17:42:57.270Z,36.50
2018-05-21T17:45:26.403Z,36.60
2018-05-21T17:47:55.719Z,36.80
2018-05-21T17:50:24.143Z,36.80
2018-05-21T17:52:52.505Z,36.90
2018-05-21T17:55:21.719Z,37.30
2018-05-21T17:57:50.434Z,37.30
2018-05-21T18:00:19.266Z,37.40
2018-05-21T18:02:48.119Z,37.40
2018-05-21T18:05:16.743Z,37.60
2018-05-21T18:07:46.652Z,37.70
2018-05-21T18:10:15.245Z,37.70
2018-05-21T18:12:44.031Z,38.20
2018-05-21T18:15:13.076Z,38.40
2018-05-21T18:17:42.548Z,38.90
2018-05-21T18:20:11.720Z,38.90
2018-05-21T18:22:40.632Z,38.80
2018-05-21T18:25:09.901Z,39.30
2018-05-21T18:27:39.610Z,39.30
2018-05-21T18:30:08.717Z,39.40
2018-05-21T18:32:37.335Z,40.20
2018-05-21T18:35:06.230Z,39.80
2018-05-21T18:37:34.714Z,40.40
2018-05-21T18:40:03.741Z,40.10
2018-05-21T18:42:32.420Z,40.80
2018-05-21T18:45:01.604Z,40.10
2018-05-21T18:47:30.398Z,40.30
2018-05-21T18:50:00.528Z,41.20
2018-05-21T18:52:29.319Z,40.80
2018-05-21T18:55:00.461Z,40.90
2018-05-21T18:57:29.453Z,40.90
2018-05-21T18:59:58.349Z,41.20
2018-05-21T19:02:27.125Z,41.80
2018-05-21T19:04:57.193Z,41.70
2018-05-21T19:07:26.504Z,41.70
2018-05-21T19:09:55.874Z,41.80
2018-05-21T19:12:25.612Z,42.20
2018-05-21T19:14:54.689Z,42.20
2018-05-21T19:17:23.885Z,42.30
2018-05-21T19:19:52.740Z,43.10
2018-05-21T19:22:21.467Z,43.20
2018-05-21T19:24:50.976Z,43.40
2018-05-21T19:27:19.763Z,43.40
2018-05-21T19:29:48.940Z,44.20
2018-05-21T19:32:17.554Z,45.00
2018-05-21T19:34:46.962Z,45.10
2018-05-21T19:37:16.120Z,45.80
2018-05-21T19:39:44.698Z,45.70
2018-05-21T19:42:13.799Z,46.00
2018-05-21T19:44:43.154Z,45.70
2018-05-21T19:47:11.846Z,45.70
2018-05-21T19:49:41.028Z,46.20
2018-05-21T19:52:09.562Z,46.60
2018-05-21T19:54:38.675Z,46.40
2018-05-21T19:57:08.138Z,47.30
2018-05-21T19:59:36.483Z,47.30
2018-05-21T20:02:05.717Z,48.00
2018-05-21T20:04:34.891Z,48.00
2018-05-21T20:07:03.268Z,48.60
2018-05-21T20:09:31.858Z,48.50
2018-05-21T20:12:02.494Z,48.90
2018-05-21T20:14:31.418Z,49.20
2018-05-21T20:17:01.540Z,50.00
2018-05-21T20:19:31.943Z,50.00
2018-05-21T20:22:00.358Z,49.90
2018-05-21T20:24:29.019Z,50.50
2018-05-21T20:26:58.832Z,50.60
2018-05-21T20:29:31.708Z,50.50
2018-05-21T20:32:00.528Z,50.90
2018-05-21T20:34:31.997Z,51.00
2018-05-21T20:37:00.416Z,51.20
2018-05-21T20:39:29.540Z,51.50
2018-05-21T20:41:58.118Z,51.50
2018-05-21T20:44:26.744Z,51.70
2018-05-21T20:46:55.330Z,52.00
2018-05-21T20:49:23.849Z,52.50
2018-05-21T20:51:53.123Z,52.40
2018-05-21T20:54:21.490Z,52.50
2018-05-21T20:56:49.889Z,52.80
2018-05-21T20:59:19.832Z,52.70
2018-05-21T21:01:48.599Z,53.30
2018-05-21T21:04:17.712Z,53.30
2018-05-21T21:06:46.035Z,53.30
2018-05-21T21:09:14.340Z,53.20
2018-05-21T21:11:42.681Z,53.40
2018-05-21T21:14:12.703Z,53.90
2018-05-21T21:16:42.783Z,54.10
2018-05-21T21:19:11.923Z,54.10
2018-05-21T21:21:40.402Z,54.50
2018-05-21T21:24:10.587Z,54.60
2018-05-21T21:26:38.996Z,54.60
2018-05-21T21:29:07.550Z,54.60
2018-05-21T21:31:35.905Z,54.60
2018-05-21T21:34:05.421Z,55.20
2018-05-21T21:36:33.764Z,55.90
2018-05-21T21:39:02.862Z,56.40
2018-05-21T21:41:31.348Z,56.40
2018-05-21T21:43:59.680Z,57.00
2018-05-21T21:46:28.005Z,57.30
2018-05-21T21:48:57.847Z,56.70
2018-05-21T21:51:26.917Z,56.80
2018-05-21T21:53:55.251Z,56.80
2018-05-21T21:56:23.561Z,56.40
2018-05-21T21:58:51.904Z,56.70
2018-05-21T22:01:20.296Z,57.20
2018-05-21T22:03:48.643Z,57.30
2018-05-21T22:06:17.719Z,57.50
2018-05-21T22:08:46.018Z,57.40
2018-05-21T22:11:15.113Z,58.30
2018-05-21T22:13:43.426Z,58.30
2018-05-21T22:16:11.765Z,58.70
2018-05-21T22:18:40.088Z,58.60
2018-05-21T22:21:09.182Z,59.10
2018-05-21T22:23:37.485Z,59.10
2018-05-21T22:26:06.800Z,59.50
2018-05-21T22:28:35.113Z,59.50
2018-05-21T22:31:03.425Z,59.50
2018-05-21T22:33:31.791Z,59.40
2018-05-21T22:36:00.863Z,60.40
2018-05-21T22:38:29.202Z,60.40
2018-05-21T22:40:57.515Z,60.70
2018-05-21T22:43:25.841Z,61.00
2018-05-21T22:45:54.922Z,62.80
2018-05-21T22:48:23.247Z,62.80
2018-05-21T22:50:51.557Z,63.40
2018-05-21T22:53:19.889Z,63.20
2018-05-21T22:55:48.188Z,64.00
2018-05-21T22:58:16.501Z,63.80
2018-05-21T23:00:44.820Z,64.10
2018-05-21T23:03:13.898Z,64.80
2018-05-21T23:05:42.219Z,64.80
2018-05-21T23:08:10.515Z,65.10
2018-05-21T23:10:39.611Z,64.70
2018-05-21T23:13:07.927Z,64.60
2018-05-21T23:15:36.354Z,66.00
2018-05-21T23:18:04.655Z,65.10
2018-05-21T23:20:32.970Z,65.60
2018-05-21T23:23:01.380Z,66.70
2018-05-21T23:25:30.669Z,66.50
2018-05-21T23:27:58.957Z,66.90
2018-05-21T23:30:27.261Z,68.20
2018-05-21T23:32:56.359Z,69.10
2018-05-21T23:35:25.445Z,69.00
2018-05-21T23:37:54.544Z,69.70
2018-05-21T23:40:23.921Z,69.60
2018-05-21T23:42:52.263Z,69.10
2018-05-21T23:45:20.568Z,69.60
2018-05-21T23:47:48.886Z,69.40
2018-05-21T23:50:17.198Z,69.90
2018-05-21T23:52:45.530Z,70.30
2018-05-21T23:55:13.831Z,71.10
2018-05-21T23:57:42.135Z,71.10
